sensor_id;sensor_type;location;lat;lon;timestamp;temperature;humidity
7032;DHT22;3557;48.880;8.328;2022-09-16T00:04:27;14.50;99.90
7032;DHT22;3557;48.880;8.328;2022-09-16T00:06:54;14.50;99.90
7032;DHT22;3557;48.880;8.328;2022-09-16T00:09:21;14.50;99.90
7032;DHT22;3557;48.880;8.328;2022-09-16T00:11:48;14.50;99.90
7032;DHT22;3557;48.880;8.328;2022-09-16T00:14:16;14.40;99.90
7032;DHT22;3557;48.880;8.328;2022-09-16T00:19:11;14.50;99.90
7032;DHT22;3557;48.880;8.328;2022-09-16T00:21:38;14.60;99.90
7032;DHT22;3557;48.880;8.328;2022-09-16T00:24:05;14.60;99.90
7032;DHT22;3557;48.880;8.328;2022-09-16T00:29:00;14.50;99.90
7032;DHT22;3557;48.880;8.328;2022-09-16T00:31:28;14.60;99.90
7032;DHT22;3557;48.880;8.328;2022-09-16T00:36:23;14.50;99.90
7032;DHT22;3557;48.880;8.328;2022-09-16T00:38:50;14.50;99.90
7032;DHT22;3557;48.880;8.328;2022-09-16T00:41:21;14.40;99.90
7032;DHT22;3557;48.880;8.328;2022-09-16T00:43:52;14.40;99.90
7032;DHT22;3557;48.880;8.328;2022-09-16T00:46:25;14.40;99.90
7032;DHT22;3557;48.880;8.328;2022-09-16T00:48:57;14.30;99.90
7032;DHT22;3557;48.880;8.328;2022-09-16T00:51:25;14.30;99.90
7032;DHT22;3557;48.880;8.328;2022-09-16T00:53:56;14.20;99.90
7032;DHT22;3557;48.880;8.328;2022-09-16T00:56:30;14.20;99.90
7032;DHT22;3557;48.880;8.328;2022-09-16T00:59:03;14.20;99.90
7032;DHT22;3557;48.880;8.328;2022-09-16T01:01:32;14.20;99.90
7032;DHT22;3557;48.880;8.328;2022-09-16T01:04:03;14.20;99.90
7032;DHT22;3557;48.880;8.328;2022-09-16T01:06:35;14.20;99.90
7032;DHT22;3557;48.880;8.328;2022-09-16T01:09:05;14.20;99.90
7032;DHT22;3557;48.880;8.328;2022-09-16T01:11:32;14.30;99.90
7032;DHT22;3557;48.880;8.328;2022-09-16T01:14:01;14.40;99.90
7032;DHT22;3557;48.880;8.328;2022-09-16T01:16:47;14.40;99.90
7032;DHT22;3557;48.880;8.328;2022-09-16T01:19:31;14.30;99.90
7032;DHT22;3557;48.880;8.328;2022-09-16T01:22:14;14.40;99.90
7032;DHT22;3557;48.880;8.328;2022-09-16T01:24:54;14.40;99.90
7032;DHT22;3557;48.880;8.328;2022-09-16T01:27:49;14.40;99.90
7032;DHT22;3557;48.880;8.328;2022-09-16T01:30:37;14.30;99.90
7032;DHT22;3557;48.880;8.328;2022-09-16T01:33:15;14.30;99.90
7032;DHT22;3557;48.880;8.328;2022-09-16T01:36:02;14.30;99.90
7032;DHT22;3557;48.880;8.328;2022-09-16T01:38:49;14.30;99.90
7032;DHT22;3557;48.880;8.328;2022-09-16T01:41:25;14.40;99.90
7032;DHT22;3557;48.880;8.328;2022-09-16T01:43:59;14.40;99.90
7032;DHT22;3557;48.880;8.328;2022-09-16T01:46:37;14.40;99.90
7032;DHT22;3557;48.880;8.328;2022-09-16T01:49:14;14.40;99.90
7032;DHT22;3557;48.880;8.328;2022-09-16T01:51:49;14.40;99.90
7032;DHT22;3557;48.880;8.328;2022-09-16T01:54:25;14.40;99.90
7032;DHT22;3557;48.880;8.328;2022-09-16T01:56:58;14.40;99.90
7032;DHT22;3557;48.880;8.328;2022-09-16T01:59:33;14.40;99.90
7032;DHT22;3557;48.880;8.328;2022-09-16T02:02:08;14.40;99.90
7032;DHT22;3557;48.880;8.328;2022-09-16T02:04:41;14.40;99.90
7032;DHT22;3557;48.880;8.328;2022-09-16T02:07:12;14.40;99.90
7032;DHT22;3557;48.880;8.328;2022-09-16T02:09:47;14.40;99.90
7032;DHT22;3557;48.880;8.328;2022-09-16T02:12:19;14.40;99.90
7032;DHT22;3557;48.880;8.328;2022-09-16T02:14:51;14.40;99.90
7032;DHT22;3557;48.880;8.328;2022-09-16T02:17:26;14.40;99.90
7032;DHT22;3557;48.880;8.328;2022-09-16T02:19:58;14.40;99.90
7032;DHT22;3557;48.880;8.328;2022-09-16T02:22:31;14.40;99.90
7032;DHT22;3557;48.880;8.328;2022-09-16T02:25:02;14.40;99.90
7032;DHT22;3557;48.880;8.328;2022-09-16T02:27:32;14.40;99.90
7032;DHT22;3557;48.880;8.328;2022-09-16T02:30:03;14.40;99.90
7032;DHT22;3557;48.880;8.328;2022-09-16T02:32:36;14.40;99.90
7032;DHT22;3557;48.880;8.328;2022-09-16T02:35:09;14.40;99.90
7032;DHT22;3557;48.880;8.328;2022-09-16T02:37:41;14.40;99.90
7032;DHT22;3557;48.880;8.328;2022-09-16T02:40:14;14.40;99.90
7032;DHT22;3557;48.880;8.328;2022-09-16T02:42:43;14.40;99.90
7032;DHT22;3557;48.880;8.328;2022-09-16T02:45:10;14.50;99.90
7032;DHT22;3557;48.880;8.328;2022-09-16T02:47:45;14.50;99.90
7032;DHT22;3557;48.880;8.328;2022-09-16T02:50:18;14.50;99.90
7032;DHT22;3557;48.880;8.328;2022-09-16T02:52:52;14.50;99.90
7032;DHT22;3557;48.880;8.328;2022-09-16T02:55:32;14.50;99.90
7032;DHT22;3557;48.880;8.328;2022-09-16T02:58:02;14.50;99.90
7032;DHT22;3557;48.880;8.328;2022-09-16T03:00:31;14.40;99.90
7032;DHT22;3557;48.880;8.328;2022-09-16T03:03:00;14.50;99.90
7032;DHT22;3557;48.880;8.328;2022-09-16T03:07:55;14.50;99.90
7032;DHT22;3557;48.880;8.328;2022-09-16T03:10:26;14.50;99.90
7032;DHT22;3557;48.880;8.328;2022-09-16T03:13:01;14.50;99.90
7032;DHT22;3557;48.880;8.328;2022-09-16T03:15:49;14.50;99.90
7032;DHT22;3557;48.880;8.328;2022-09-16T03:18:48;14.40;99.90
7032;DHT22;3557;48.880;8.328;2022-09-16T03:21:26;14.50;99.90
7032;DHT22;3557;48.880;8.328;2022-09-16T03:24:03;14.60;99.90
7032;DHT22;3557;48.880;8.328;2022-09-16T03:26:43;14.60;99.90
7032;DHT22;3557;48.880;8.328;2022-09-16T03:29:17;14.60;99.90
7032;DHT22;3557;48.880;8.328;2022-09-16T03:31:56;14.60;99.90
7032;DHT22;3557;48.880;8.328;2022-09-16T03:34:30;14.60;99.90
7032;DHT22;3557;48.880;8.328;2022-09-16T03:37:02;14.60;99.90
7032;DHT22;3557;48.880;8.328;2022-09-16T03:39:31;14.70;99.90
7032;DHT22;3557;48.880;8.328;2022-09-16T03:41:59;14.60;99.90
7032;DHT22;3557;48.880;8.328;2022-09-16T03:44:31;14.70;99.90
7032;DHT22;3557;48.880;8.328;2022-09-16T03:49:28;14.60;99.90
7032;DHT22;3557;48.880;8.328;2022-09-16T03:51:56;14.70;99.90
7032;DHT22;3557;48.880;8.328;2022-09-16T03:54:24;14.70;99.90
7032;DHT22;3557;48.880;8.328;2022-09-16T03:59:18;14.70;99.90
7032;DHT22;3557;48.880;8.328;2022-09-16T04:06:41;14.60;99.90
7032;DHT22;3557;48.880;8.328;2022-09-16T04:09:10;14.60;99.90
7032;DHT22;3557;48.880;8.328;2022-09-16T04:11:38;14.50;99.90
7032;DHT22;3557;48.880;8.328;2022-09-16T04:14:06;14.60;99.90
7032;DHT22;3557;48.880;8.328;2022-09-16T04:16:33;14.60;99.90
7032;DHT22;3557;48.880;8.328;2022-09-16T04:21:27;14.60;99.90
7032;DHT22;3557;48.880;8.328;2022-09-16T04:23:56;14.60;99.90
7032;DHT22;3557;48.880;8.328;2022-09-16T04:28:51;14.60;99.90
7032;DHT22;3557;48.880;8.328;2022-09-16T04:31:19;14.60;99.90
7032;DHT22;3557;48.880;8.328;2022-09-16T04:33:47;14.60;99.90
7032;DHT22;3557;48.880;8.328;2022-09-16T04:36:15;14.60;99.90
7032;DHT22;3557;48.880;8.328;2022-09-16T04:38:45;14.60;99.90
7032;DHT22;3557;48.880;8.328;2022-09-16T04:41:15;14.50;99.90
7032;DHT22;3557;48.880;8.328;2022-09-16T04:43:43;14.50;99.90
7032;DHT22;3557;48.880;8.328;2022-09-16T04:46:11;14.50;99.90
7032;DHT22;3557;48.880;8.328;2022-09-16T04:51:08;14.50;99.90
7032;DHT22;3557;48.880;8.328;2022-09-16T04:53:37;14.40;99.90
7032;DHT22;3557;48.880;8.328;2022-09-16T04:56:06;14.40;99.90
7032;DHT22;3557;48.880;8.328;2022-09-16T04:58:36;14.40;99.90
7032;DHT22;3557;48.880;8.328;2022-09-16T05:01:04;14.40;99.90
7032;DHT22;3557;48.880;8.328;2022-09-16T05:03:32;14.40;99.90
7032;DHT22;3557;48.880;8.328;2022-09-16T05:06:04;14.40;99.90
7032;DHT22;3557;48.880;8.328;2022-09-16T05:08:32;14.30;99.90
7032;DHT22;3557;48.880;8.328;2022-09-16T05:11:04;14.40;99.90
7032;DHT22;3557;48.880;8.328;2022-09-16T05:16:03;14.30;99.90
7032;DHT22;3557;48.880;8.328;2022-09-16T05:20:58;14.20;99.90
7032;DHT22;3557;48.880;8.328;2022-09-16T05:23:26;14.20;99.90
7032;DHT22;3557;48.880;8.328;2022-09-16T05:25:54;14.20;99.90
7032;DHT22;3557;48.880;8.328;2022-09-16T05:28:21;14.20;99.90
7032;DHT22;3557;48.880;8.328;2022-09-16T05:30:48;14.10;99.90
7032;DHT22;3557;48.880;8.328;2022-09-16T05:33:16;14.10;99.90
7032;DHT22;3557;48.880;8.328;2022-09-16T05:38:11;14.20;99.90
7032;DHT22;3557;48.880;8.328;2022-09-16T05:40:38;14.20;99.90
7032;DHT22;3557;48.880;8.328;2022-09-16T05:43:05;14.20;99.90
7032;DHT22;3557;48.880;8.328;2022-09-16T05:45:32;14.20;99.90
7032;DHT22;3557;48.880;8.328;2022-09-16T05:48:00;14.20;99.90
7032;DHT22;3557;48.880;8.328;2022-09-16T05:50:28;14.10;99.90
7032;DHT22;3557;48.880;8.328;2022-09-16T06:00:18;13.90;99.90
7032;DHT22;3557;48.880;8.328;2022-09-16T06:02:46;13.80;99.90
7032;DHT22;3557;48.880;8.328;2022-09-16T06:05:13;13.80;99.90
7032;DHT22;3557;48.880;8.328;2022-09-16T06:07:42;13.70;99.90
7032;DHT22;3557;48.880;8.328;2022-09-16T06:10:09;13.70;99.90
7032;DHT22;3557;48.880;8.328;2022-09-16T06:12:36;13.70;99.90
7032;DHT22;3557;48.880;8.328;2022-09-16T06:15:04;13.70;99.90
7032;DHT22;3557;48.880;8.328;2022-09-16T06:19:59;13.60;99.90
7032;DHT22;3557;48.880;8.328;2022-09-16T06:22:29;13.60;99.90
7032;DHT22;3557;48.880;8.328;2022-09-16T06:24:57;13.60;99.90
7032;DHT22;3557;48.880;8.328;2022-09-16T06:29:52;13.70;99.90
7032;DHT22;3557;48.880;8.328;2022-09-16T06:32:18;13.60;99.90
7032;DHT22;3557;48.880;8.328;2022-09-16T06:34:45;13.60;99.90
7032;DHT22;3557;48.880;8.328;2022-09-16T06:42:08;13.60;99.90
7032;DHT22;3557;48.880;8.328;2022-09-16T06:44:39;13.70;99.90
7032;DHT22;3557;48.880;8.328;2022-09-16T06:47:06;13.70;99.90
7032;DHT22;3557;48.880;8.328;2022-09-16T06:52:01;13.70;99.90
7032;DHT22;3557;48.880;8.328;2022-09-16T06:54:28;13.80;99.90
7032;DHT22;3557;48.880;8.328;2022-09-16T06:56:55;13.80;99.90
7032;DHT22;3557;48.880;8.328;2022-09-16T06:59:23;13.80;99.90
7032;DHT22;3557;48.880;8.328;2022-09-16T07:01:50;13.90;99.90
7032;DHT22;3557;48.880;8.328;2022-09-16T07:04:17;13.90;99.90
7032;DHT22;3557;48.880;8.328;2022-09-16T07:06:44;14.00;99.90
7032;DHT22;3557;48.880;8.328;2022-09-16T07:11:39;14.00;99.90
7032;DHT22;3557;48.880;8.328;2022-09-16T07:14:07;14.00;99.90
7032;DHT22;3557;48.880;8.328;2022-09-16T07:16:36;13.90;99.90
7032;DHT22;3557;48.880;8.328;2022-09-16T07:19:03;13.80;99.90
7032;DHT22;3557;48.880;8.328;2022-09-16T07:21:30;13.80;99.90
7032;DHT22;3557;48.880;8.328;2022-09-16T07:23:58;13.70;99.90
7032;DHT22;3557;48.880;8.328;2022-09-16T07:26:28;13.70;99.90
7032;DHT22;3557;48.880;8.328;2022-09-16T07:28:59;13.70;99.90
7032;DHT22;3557;48.880;8.328;2022-09-16T07:31:29;13.90;99.90
7032;DHT22;3557;48.880;8.328;2022-09-16T07:33:59;13.80;99.90
7032;DHT22;3557;48.880;8.328;2022-09-16T07:36:29;13.80;99.90
7032;DHT22;3557;48.880;8.328;2022-09-16T07:38:58;13.90;99.90
7032;DHT22;3557;48.880;8.328;2022-09-16T07:41:27;14.00;99.90
7032;DHT22;3557;48.880;8.328;2022-09-16T07:43:56;14.00;99.90
7032;DHT22;3557;48.880;8.328;2022-09-16T07:46:25;13.90;99.90
7032;DHT22;3557;48.880;8.328;2022-09-16T07:48:53;13.90;99.90
7032;DHT22;3557;48.880;8.328;2022-09-16T07:51:23;14.00;99.90
7032;DHT22;3557;48.880;8.328;2022-09-16T07:53:53;14.00;99.90
7032;DHT22;3557;48.880;8.328;2022-09-16T07:56:22;14.00;99.90
7032;DHT22;3557;48.880;8.328;2022-09-16T07:58:51;13.90;99.90
7032;DHT22;3557;48.880;8.328;2022-09-16T08:01:19;13.90;99.90
7032;DHT22;3557;48.880;8.328;2022-09-16T08:06:15;13.80;99.90
7032;DHT22;3557;48.880;8.328;2022-09-16T08:08:45;13.90;99.90
7032;DHT22;3557;48.880;8.328;2022-09-16T08:11:13;13.80;99.90
7032;DHT22;3557;48.880;8.328;2022-09-16T08:13:41;13.80;99.90
7032;DHT22;3557;48.880;8.328;2022-09-16T08:16:11;13.80;99.90
7032;DHT22;3557;48.880;8.328;2022-09-16T08:18:39;13.90;99.90
7032;DHT22;3557;48.880;8.328;2022-09-16T08:21:07;14.00;99.90
7032;DHT22;3557;48.880;8.328;2022-09-16T08:23:36;14.00;99.90
7032;DHT22;3557;48.880;8.328;2022-09-16T08:26:06;14.10;99.90
7032;DHT22;3557;48.880;8.328;2022-09-16T08:28:35;14.00;99.90
7032;DHT22;3557;48.880;8.328;2022-09-16T08:31:03;13.90;99.90
7032;DHT22;3557;48.880;8.328;2022-09-16T08:33:31;14.00;99.90
7032;DHT22;3557;48.880;8.328;2022-09-16T08:35:59;13.90;99.90
7032;DHT22;3557;48.880;8.328;2022-09-16T08:38:27;14.00;99.90
7032;DHT22;3557;48.880;8.328;2022-09-16T08:40:57;13.90;99.90
7032;DHT22;3557;48.880;8.328;2022-09-16T08:43:34;14.00;99.90
7032;DHT22;3557;48.880;8.328;2022-09-16T08:46:07;14.00;99.90
7032;DHT22;3557;48.880;8.328;2022-09-16T08:48:45;14.10;99.90
7032;DHT22;3557;48.880;8.328;2022-09-16T08:51:17;14.20;99.90
7032;DHT22;3557;48.880;8.328;2022-09-16T08:53:50;14.10;99.90
7032;DHT22;3557;48.880;8.328;2022-09-16T08:56:21;14.10;99.90
7032;DHT22;3557;48.880;8.328;2022-09-16T08:58:53;14.10;99.90
7032;DHT22;3557;48.880;8.328;2022-09-16T09:01:28;14.10;99.90
7032;DHT22;3557;48.880;8.328;2022-09-16T09:03:58;14.10;99.90
7032;DHT22;3557;48.880;8.328;2022-09-16T09:06:38;14.10;99.90
7032;DHT22;3557;48.880;8.328;2022-09-16T09:09:23;14.10;99.90
7032;DHT22;3557;48.880;8.328;2022-09-16T09:12:06;14.10;99.90
7032;DHT22;3557;48.880;8.328;2022-09-16T09:14:47;14.20;99.90
7032;DHT22;3557;48.880;8.328;2022-09-16T09:17:33;14.30;99.90
7032;DHT22;3557;48.880;8.328;2022-09-16T09:20:15;14.30;99.90
7032;DHT22;3557;48.880;8.328;2022-09-16T09:22:58;14.30;99.90
7032;DHT22;3557;48.880;8.328;2022-09-16T09:25:39;14.40;99.90
7032;DHT22;3557;48.880;8.328;2022-09-16T09:28:26;14.30;99.90
7032;DHT22;3557;48.880;8.328;2022-09-16T09:31:24;14.30;99.90
7032;DHT22;3557;48.880;8.328;2022-09-16T09:34:05;14.30;99.90
7032;DHT22;3557;48.880;8.328;2022-09-16T09:36:50;14.20;99.90
7032;DHT22;3557;48.880;8.328;2022-09-16T09:39:36;14.20;99.90
7032;DHT22;3557;48.880;8.328;2022-09-16T09:42:11;14.20;99.90
7032;DHT22;3557;48.880;8.328;2022-09-16T09:44:49;14.30;99.90
7032;DHT22;3557;48.880;8.328;2022-09-16T09:47:31;14.40;99.90
7032;DHT22;3557;48.880;8.328;2022-09-16T09:50:08;14.30;99.90
7032;DHT22;3557;48.880;8.328;2022-09-16T09:52:44;14.30;99.90
7032;DHT22;3557;48.880;8.328;2022-09-16T09:55:17;14.40;99.90
7032;DHT22;3557;48.880;8.328;2022-09-16T09:58:00;14.20;99.90
7032;DHT22;3557;48.880;8.328;2022-09-16T10:00:35;14.20;99.90
7032;DHT22;3557;48.880;8.328;2022-09-16T10:03:06;14.20;99.90
7032;DHT22;3557;48.880;8.328;2022-09-16T10:05:36;14.20;99.90
7032;DHT22;3557;48.880;8.328;2022-09-16T10:08:08;14.30;99.90
7032;DHT22;3557;48.880;8.328;2022-09-16T10:10:47;14.30;99.90
7032;DHT22;3557;48.880;8.328;2022-09-16T10:13:16;14.30;99.90
7032;DHT22;3557;48.880;8.328;2022-09-16T10:15:44;14.30;99.90
7032;DHT22;3557;48.880;8.328;2022-09-16T10:18:21;14.20;99.90
7032;DHT22;3557;48.880;8.328;2022-09-16T10:20:59;14.10;99.90
7032;DHT22;3557;48.880;8.328;2022-09-16T10:23:29;14.10;99.90
7032;DHT22;3557;48.880;8.328;2022-09-16T10:26:17;14.10;99.90
7032;DHT22;3557;48.880;8.328;2022-09-16T10:28:57;14.10;99.90
7032;DHT22;3557;48.880;8.328;2022-09-16T10:31:28;14.20;99.90
7032;DHT22;3557;48.880;8.328;2022-09-16T10:33:58;14.20;99.90
7032;DHT22;3557;48.880;8.328;2022-09-16T10:36:28;14.40;99.90
7032;DHT22;3557;48.880;8.328;2022-09-16T10:39:00;14.70;99.90
7032;DHT22;3557;48.880;8.328;2022-09-16T10:41:31;15.00;99.90
7032;DHT22;3557;48.880;8.328;2022-09-16T10:44:01;15.30;99.90
7032;DHT22;3557;48.880;8.328;2022-09-16T10:46:30;15.40;99.90
7032;DHT22;3557;48.880;8.328;2022-09-16T10:49:08;15.50;99.90
7032;DHT22;3557;48.880;8.328;2022-09-16T10:54:04;15.40;99.90
7032;DHT22;3557;48.880;8.328;2022-09-16T10:56:33;15.50;99.90
7032;DHT22;3557;48.880;8.328;2022-09-16T10:59:13;15.50;99.90
7032;DHT22;3557;48.880;8.328;2022-09-16T11:06:16;15.80;99.90
7032;DHT22;3557;48.880;8.328;2022-09-16T11:09:01;16.10;99.90
7032;DHT22;3557;48.880;8.328;2022-09-16T11:11:44;16.30;99.90
7032;DHT22;3557;48.880;8.328;2022-09-16T11:14:25;16.20;99.90
7032;DHT22;3557;48.880;8.328;2022-09-16T11:17:18;16.60;99.90
7032;DHT22;3557;48.880;8.328;2022-09-16T11:20:03;17.10;99.90
7032;DHT22;3557;48.880;8.328;2022-09-16T11:22:56;17.40;99.90
7032;DHT22;3557;48.880;8.328;2022-09-16T11:25:37;17.10;99.90
7032;DHT22;3557;48.880;8.328;2022-09-16T11:28:24;16.80;99.90
7032;DHT22;3557;48.880;8.328;2022-09-16T11:31:20;16.50;99.90
7032;DHT22;3557;48.880;8.328;2022-09-16T11:33:58;16.30;99.90
7032;DHT22;3557;48.880;8.328;2022-09-16T11:36:45;16.30;99.90
7032;DHT22;3557;48.880;8.328;2022-09-16T11:39:36;16.20;99.90
7032;DHT22;3557;48.880;8.328;2022-09-16T11:42:16;16.40;99.90
7032;DHT22;3557;48.880;8.328;2022-09-16T11:44:50;17.30;99.90
7032;DHT22;3557;48.880;8.328;2022-09-16T11:47:53;17.30;99.90
7032;DHT22;3557;48.880;8.328;2022-09-16T11:50:38;17.00;99.90
7032;DHT22;3557;48.880;8.328;2022-09-16T11:56:35;17.70;99.90
7032;DHT22;3557;48.880;8.328;2022-09-16T11:59:12;18.00;99.90
7032;DHT22;3557;48.880;8.328;2022-09-16T12:01:46;17.70;99.90
7032;DHT22;3557;48.880;8.328;2022-09-16T12:04:22;17.90;99.90
7032;DHT22;3557;48.880;8.328;2022-09-16T12:06:57;17.90;99.90
7032;DHT22;3557;48.880;8.328;2022-09-16T12:09:32;17.80;99.90
7032;DHT22;3557;48.880;8.328;2022-09-16T12:12:09;17.90;99.90
7032;DHT22;3557;48.880;8.328;2022-09-16T12:14:41;18.20;99.90
7032;DHT22;3557;48.880;8.328;2022-09-16T12:17:15;18.80;99.90
7032;DHT22;3557;48.880;8.328;2022-09-16T12:19:48;19.00;99.90
7032;DHT22;3557;48.880;8.328;2022-09-16T12:22:21;19.50;99.90
7032;DHT22;3557;48.880;8.328;2022-09-16T12:24:56;19.80;99.90
7032;DHT22;3557;48.880;8.328;2022-09-16T12:27:42;20.20;99.90
7032;DHT22;3557;48.880;8.328;2022-09-16T12:30:15;20.40;99.90
7032;DHT22;3557;48.880;8.328;2022-09-16T12:32:55;20.10;99.90
7032;DHT22;3557;48.880;8.328;2022-09-16T12:35:29;19.70;99.90
7032;DHT22;3557;48.880;8.328;2022-09-16T12:37:58;19.90;99.90
7032;DHT22;3557;48.880;8.328;2022-09-16T12:40:27;19.90;99.90
7032;DHT22;3557;48.880;8.328;2022-09-16T12:43:16;19.60;99.90
7032;DHT22;3557;48.880;8.328;2022-09-16T12:49:31;19.70;99.90
7032;DHT22;3557;48.880;8.328;2022-09-16T12:52:22;19.30;99.90
7032;DHT22;3557;48.880;8.328;2022-09-16T12:55:17;19.40;99.90
7032;DHT22;3557;48.880;8.328;2022-09-16T12:58:17;19.40;99.90
7032;DHT22;3557;48.880;8.328;2022-09-16T13:01:00;19.10;99.90
7032;DHT22;3557;48.880;8.328;2022-09-16T13:03:36;18.90;99.90
7032;DHT22;3557;48.880;8.328;2022-09-16T13:06:17;18.60;99.90
7032;DHT22;3557;48.880;8.328;2022-09-16T13:08:47;18.90;99.90
7032;DHT22;3557;48.880;8.328;2022-09-16T13:11:19;19.20;99.90
7032;DHT22;3557;48.880;8.328;2022-09-16T13:13:51;19.60;99.90
7032;DHT22;3557;48.880;8.328;2022-09-16T13:16:28;19.50;99.90
7032;DHT22;3557;48.880;8.328;2022-09-16T13:19:22;19.70;99.90
7032;DHT22;3557;48.880;8.328;2022-09-16T13:21:56;20.10;99.90
7032;DHT22;3557;48.880;8.328;2022-09-16T13:24:30;19.50;99.90
7032;DHT22;3557;48.880;8.328;2022-09-16T13:29:42;18.80;99.90
7032;DHT22;3557;48.880;8.328;2022-09-16T13:32:26;19.00;99.90
7032;DHT22;3557;48.880;8.328;2022-09-16T13:35:02;19.00;99.90
7032;DHT22;3557;48.880;8.328;2022-09-16T13:40:07;19.20;94.40
7032;DHT22;3557;48.880;8.328;2022-09-16T13:45:32;19.30;92.50
7032;DHT22;3557;48.880;8.328;2022-09-16T13:48:05;19.40;91.40
7032;DHT22;3557;48.880;8.328;2022-09-16T13:50:40;19.20;93.70
7032;DHT22;3557;48.880;8.328;2022-09-16T13:53:09;18.90;96.50
7032;DHT22;3557;48.880;8.328;2022-09-16T13:55:38;18.90;97.90
7032;DHT22;3557;48.880;8.328;2022-09-16T13:58:11;19.00;98.10
7032;DHT22;3557;48.880;8.328;2022-09-16T14:00:51;18.30;99.90
7032;DHT22;3557;48.880;8.328;2022-09-16T14:03:44;18.20;99.90
7032;DHT22;3557;48.880;8.328;2022-09-16T14:06:32;18.30;99.90
7032;DHT22;3557;48.880;8.328;2022-09-16T14:09:24;19.00;99.90
7032;DHT22;3557;48.880;8.328;2022-09-16T14:12:02;19.50;93.50
7032;DHT22;3557;48.880;8.328;2022-09-16T14:14:35;20.00;91.00
7032;DHT22;3557;48.880;8.328;2022-09-16T14:17:12;19.70;83.60
7032;DHT22;3557;48.880;8.328;2022-09-16T14:19:42;19.30;86.20
7032;DHT22;3557;48.880;8.328;2022-09-16T14:22:14;19.10;90.40
7032;DHT22;3557;48.880;8.328;2022-09-16T14:24:43;19.20;88.90
7032;DHT22;3557;48.880;8.328;2022-09-16T14:27:19;20.00;92.10
7032;DHT22;3557;48.880;8.328;2022-09-16T14:29:54;20.60;87.20
7032;DHT22;3557;48.880;8.328;2022-09-16T14:32:25;20.20;84.70
7032;DHT22;3557;48.880;8.328;2022-09-16T14:34:55;20.20;83.80
7032;DHT22;3557;48.880;8.328;2022-09-16T14:37:24;20.50;85.70
7032;DHT22;3557;48.880;8.328;2022-09-16T14:39:53;20.50;82.70
7032;DHT22;3557;48.880;8.328;2022-09-16T14:42:22;20.20;82.80
7032;DHT22;3557;48.880;8.328;2022-09-16T14:44:52;20.10;82.40
7032;DHT22;3557;48.880;8.328;2022-09-16T14:47:26;20.20;82.40
7032;DHT22;3557;48.880;8.328;2022-09-16T14:49:56;20.20;81.60
7032;DHT22;3557;48.880;8.328;2022-09-16T14:52:30;20.20;85.30
7032;DHT22;3557;48.880;8.328;2022-09-16T14:54:58;20.30;81.80
7032;DHT22;3557;48.880;8.328;2022-09-16T14:57:26;20.30;80.00
7032;DHT22;3557;48.880;8.328;2022-09-16T14:59:56;20.50;82.20
7032;DHT22;3557;48.880;8.328;2022-09-16T15:02:29;20.40;81.80
7032;DHT22;3557;48.880;8.328;2022-09-16T15:05:03;20.50;74.70
7032;DHT22;3557;48.880;8.328;2022-09-16T15:07:45;20.40;76.40
7032;DHT22;3557;48.880;8.328;2022-09-16T15:10:18;20.30;76.90
7032;DHT22;3557;48.880;8.328;2022-09-16T15:12:51;20.10;76.70
7032;DHT22;3557;48.880;8.328;2022-09-16T15:15:23;19.60;76.70
7032;DHT22;3557;48.880;8.328;2022-09-16T15:17:56;18.90;79.50
7032;DHT22;3557;48.880;8.328;2022-09-16T15:20:27;19.10;77.60
7032;DHT22;3557;48.880;8.328;2022-09-16T15:22:57;19.50;75.50
7032;DHT22;3557;48.880;8.328;2022-09-16T15:25:26;19.60;75.90
7032;DHT22;3557;48.880;8.328;2022-09-16T15:28:03;19.70;76.50
7032;DHT22;3557;48.880;8.328;2022-09-16T15:30:32;19.80;75.70
7032;DHT22;3557;48.880;8.328;2022-09-16T15:33:01;20.30;78.00
7032;DHT22;3557;48.880;8.328;2022-09-16T15:35:28;20.40;76.50
7032;DHT22;3557;48.880;8.328;2022-09-16T15:37:56;20.40;74.40
7032;DHT22;3557;48.880;8.328;2022-09-16T15:40:31;20.10;74.90
7032;DHT22;3557;48.880;8.328;2022-09-16T15:43:12;20.20;74.30
7032;DHT22;3557;48.880;8.328;2022-09-16T15:45:42;19.80;76.10
7032;DHT22;3557;48.880;8.328;2022-09-16T15:48:15;20.00;78.60
7032;DHT22;3557;48.880;8.328;2022-09-16T15:50:46;19.90;79.10
7032;DHT22;3557;48.880;8.328;2022-09-16T15:53:18;19.10;78.00
7032;DHT22;3557;48.880;8.328;2022-09-16T15:55:55;18.70;81.00
7032;DHT22;3557;48.880;8.328;2022-09-16T15:58:34;18.30;84.20
7032;DHT22;3557;48.880;8.328;2022-09-16T16:01:09;18.20;82.30
7032;DHT22;3557;48.880;8.328;2022-09-16T16:03:50;18.00;83.10
7032;DHT22;3557;48.880;8.328;2022-09-16T16:08:49;17.80;86.10
7032;DHT22;3557;48.880;8.328;2022-09-16T16:11:18;17.70;87.80
7032;DHT22;3557;48.880;8.328;2022-09-16T16:13:46;17.60;89.90
7032;DHT22;3557;48.880;8.328;2022-09-16T16:16:16;17.50;89.90
7032;DHT22;3557;48.880;8.328;2022-09-16T16:18:45;17.40;90.10
7032;DHT22;3557;48.880;8.328;2022-09-16T16:21:14;17.30;90.30
7032;DHT22;3557;48.880;8.328;2022-09-16T16:23:42;17.20;92.50
7032;DHT22;3557;48.880;8.328;2022-09-16T16:26:10;17.10;90.50
7032;DHT22;3557;48.880;8.328;2022-09-16T16:28:37;17.00;91.90
7032;DHT22;3557;48.880;8.328;2022-09-16T16:31:09;16.80;95.40
7032;DHT22;3557;48.880;8.328;2022-09-16T16:36:08;16.60;98.80
7032;DHT22;3557;48.880;8.328;2022-09-16T16:38:34;16.50;99.90
7032;DHT22;3557;48.880;8.328;2022-09-16T16:43:29;16.40;99.90
7032;DHT22;3557;48.880;8.328;2022-09-16T16:48:23;16.30;99.90
7032;DHT22;3557;48.880;8.328;2022-09-16T16:50:56;16.30;99.90
7032;DHT22;3557;48.880;8.328;2022-09-16T16:53:25;16.30;99.90
7032;DHT22;3557;48.880;8.328;2022-09-16T16:55:53;16.20;99.90
7032;DHT22;3557;48.880;8.328;2022-09-16T17:03:15;16.10;99.90
7032;DHT22;3557;48.880;8.328;2022-09-16T17:05:42;16.00;99.90
7032;DHT22;3557;48.880;8.328;2022-09-16T17:08:09;16.00;99.90
7032;DHT22;3557;48.880;8.328;2022-09-16T17:10:38;16.00;99.90
7032;DHT22;3557;48.880;8.328;2022-09-16T17:13:06;16.00;99.90
7032;DHT22;3557;48.880;8.328;2022-09-16T17:15:33;15.90;99.90
7032;DHT22;3557;48.880;8.328;2022-09-16T17:18:00;15.80;99.90
7032;DHT22;3557;48.880;8.328;2022-09-16T17:20:27;15.80;99.90
7032;DHT22;3557;48.880;8.328;2022-09-16T17:25:21;15.70;99.90
7032;DHT22;3557;48.880;8.328;2022-09-16T17:27:50;15.60;99.90
7032;DHT22;3557;48.880;8.328;2022-09-16T17:35:12;15.50;99.90
7032;DHT22;3557;48.880;8.328;2022-09-16T17:40:07;15.40;99.90
7032;DHT22;3557;48.880;8.328;2022-09-16T17:45:03;14.90;99.90
7032;DHT22;3557;48.880;8.328;2022-09-16T17:47:31;14.80;99.90
7032;DHT22;3557;48.880;8.328;2022-09-16T17:52:30;14.50;99.90
7032;DHT22;3557;48.880;8.328;2022-09-16T17:59:51;14.20;99.90
7032;DHT22;3557;48.880;8.328;2022-09-16T18:02:20;14.10;99.90
7032;DHT22;3557;48.880;8.328;2022-09-16T18:07:16;14.00;99.90
7032;DHT22;3557;48.880;8.328;2022-09-16T18:12:10;14.00;99.90
7032;DHT22;3557;48.880;8.328;2022-09-16T18:17:05;13.90;99.90
7032;DHT22;3557;48.880;8.328;2022-09-16T18:19:33;13.90;99.90
7032;DHT22;3557;48.880;8.328;2022-09-16T18:24:28;13.80;99.90
7032;DHT22;3557;48.880;8.328;2022-09-16T18:26:55;13.70;99.90
7032;DHT22;3557;48.880;8.328;2022-09-16T18:29:22;13.70;99.90
7032;DHT22;3557;48.880;8.328;2022-09-16T18:34:17;13.60;99.90
7032;DHT22;3557;48.880;8.328;2022-09-16T18:36:46;13.50;99.90
7032;DHT22;3557;48.880;8.328;2022-09-16T18:39:14;13.40;99.90
7032;DHT22;3557;48.880;8.328;2022-09-16T18:41:43;13.40;99.90
7032;DHT22;3557;48.880;8.328;2022-09-16T18:44:12;13.30;99.90
7032;DHT22;3557;48.880;8.328;2022-09-16T18:49:09;13.20;99.90
7032;DHT22;3557;48.880;8.328;2022-09-16T18:51:41;13.10;99.90